Time;durP1;ratioP1;P1;durP2;ratioP2;P2;SDS_P1;SDS_P2;PMS_P1;PMS_P2;Temp;Humidity;BMP_temperature;BMP_pressure;BME280_temperature;BME280_humidity;BME280_pressure;Samples;Min_cycle;Max_cycle;Signal;HPM_P1;HPM_P2
2022/10/07 00:01:50;;;;;;;8.77;6.43;;;;;;;;;;5036126;28;20026;-74
2022/10/07 00:04:16;;;;;;;7.53;6.22;;;;;;;;;;5034718;28;20064;-67
2022/10/07 00:06:41;;;;;;;7.85;6.40;;;;;;;;;;5034599;28;20040;-67
2022/10/07 00:09:07;;;;;;;8.52;6.45;;;;;;;;;;5034616;28;20029;-67
2022/10/07 00:11:32;;;;;;;6.68;5.95;;;;;;;;;;5034752;28;20022;-66
2022/10/07 00:14:00;;;;;;;6.63;5.80;;;;;;;;;;5035159;28;20021;-67
2022/10/07 00:16:28;;;;;;;7.93;6.65;;;;;;;;;;5034396;28;20044;-68
2022/10/07 00:18:57;;;;;;;8.50;6.15;;;;;;;;;;5034568;28;20094;-68
2022/10/07 00:21:24;;;;;;;7.22;6.15;;;;;;;;;;5035199;28;20095;-67
2022/10/07 00:23:50;;;;;;;7.90;6.18;;;;;;;;;;5035636;28;20032;-67
2022/10/07 00:26:19;;;;;;;8.90;6.38;;;;;;;;;;5035048;28;20025;-67
2022/10/07 00:28:45;;;;;;;8.52;6.55;;;;;;;;;;5037244;28;20025;-73
2022/10/07 00:31:28;;;;;;;7.53;6.07;;;;;;;;;;5035731;28;20527;-67
2022/10/07 00:33:55;;;;;;;9.63;6.60;;;;;;;;;;5036434;28;20029;-67
2022/10/07 00:36:23;;;;;;;8.45;6.28;;;;;;;;;;5039098;28;20045;-72
2022/10/07 00:38:50;;;;;;;8.73;6.15;;;;;;;;;;5040683;28;20075;-69
2022/10/07 00:41:20;;;;;;;9.93;6.55;;;;;;;;;;5040139;28;20030;-72
2022/10/07 00:43:47;;;;;;;8.13;5.85;;;;;;;;;;5039790;28;20124;-71
2022/10/07 00:46:28;;;;;;;8.93;6.75;;;;;;;;;;5038068;28;20501;-72
2022/10/07 00:48:55;;;;;;;9.57;6.40;;;;;;;;;;5037530;28;20053;-64
2022/10/07 00:51:20;;;;;;;6.70;5.55;;;;;;;;;;5036591;28;20534;-72
2022/10/07 00:53:50;;;;;;;7.38;6.13;;;;;;;;;;5034837;28;20117;-65
2022/10/07 00:56:16;;;;;;;7.95;6.35;;;;;;;;;;5036491;28;20025;-69
2022/10/07 00:58:44;;;;;;;7.10;6.13;;;;;;;;;;5037115;28;20033;-65
2022/10/07 01:01:10;;;;;;;8.50;6.18;;;;;;;;;;5033029;28;20032;-72
2022/10/07 01:03:36;;;;;;;7.78;5.93;;;;;;;;;;5035785;28;20028;-66
2022/10/07 01:06:03;;;;;;;8.45;6.32;;;;;;;;;;5037870;28;20021;-65
2022/10/07 01:08:29;;;;;;;7.15;6.22;;;;;;;;;;5041947;28;20104;-69
2022/10/07 01:11:12;;;;;;;6.35;5.35;;;;;;;;;;5039753;28;20056;-65
2022/10/07 01:13:59;;;;;;;7.80;5.95;;;;;;;;;;5035512;28;20029;-65
2022/10/07 01:16:38;;;;;;;7.75;5.90;;;;;;;;;;5036518;28;20104;-68
2022/10/07 01:19:22;;;;;;;8.05;6.53;;;;;;;;;;5035754;28;20025;-65
2022/10/07 01:22:33;;;;;;;8.73;6.10;;;;;;;;;;5036248;28;20025;-69
2022/10/07 01:25:23;;;;;;;7.53;6.25;;;;;;;;;;5027388;28;20392;-64
2022/10/07 01:27:54;;;;;;;7.30;6.00;;;;;;;;;;5035618;28;20033;-70
2022/10/07 01:30:20;;;;;;;7.45;5.75;;;;;;;;;;5035414;28;20045;-67
2022/10/07 01:33:03;;;;;;;8.43;5.88;;;;;;;;;;5035758;28;20021;-73
2022/10/07 01:35:34;;;;;;;8.05;5.65;;;;;;;;;;5035276;28;20026;-64
2022/10/07 01:38:04;;;;;;;7.47;5.47;;;;;;;;;;5034702;28;20108;-64
2022/10/07 01:40:39;;;;;;;7.68;5.82;;;;;;;;;;5035574;28;20077;-65
2022/10/07 01:43:05;;;;;;;6.35;5.63;;;;;;;;;;4993229;28;1226745;-70
2022/10/07 01:45:34;;;;;;;7.22;5.35;;;;;;;;;;5037998;28;20033;-71
2022/10/07 01:48:00;;;;;;;6.43;5.80;;;;;;;;;;5038330;28;20068;-68
2022/10/07 01:50:29;;;;;;;7.18;5.65;;;;;;;;;;5038448;28;20521;-70
2022/10/07 01:53:04;;;;;;;8.35;5.70;;;;;;;;;;5037914;28;20051;-70
2022/10/07 01:56:00;;;;;;;7.55;5.90;;;;;;;;;;5037829;28;20036;-73
2022/10/07 01:58:40;;;;;;;8.57;5.30;;;;;;;;;;5038751;28;20071;-67
2022/10/07 02:01:27;;;;;;;8.93;6.13;;;;;;;;;;5039894;28;20398;-70
2022/10/07 02:04:17;;;;;;;5.95;5.35;;;;;;;;;;5038888;28;20035;-66
2022/10/07 02:07:01;;;;;;;9.45;5.90;;;;;;;;;;5039089;28;20029;-71
2022/10/07 02:09:34;;;;;;;7.00;5.90;;;;;;;;;;5038765;28;20037;-65
2022/10/07 02:12:12;;;;;;;6.07;5.43;;;;;;;;;;5037505;28;20060;-65
2022/10/07 02:14:44;;;;;;;6.97;5.38;;;;;;;;;;5037047;28;20029;-70
2022/10/07 02:17:18;;;;;;;7.28;5.65;;;;;;;;;;5036512;28;20037;-65
2022/10/07 02:19:48;;;;;;;6.45;5.75;;;;;;;;;;5035995;28;20096;-69
2022/10/07 02:22:16;;;;;;;6.40;5.80;;;;;;;;;;5036606;28;20056;-66
2022/10/07 02:24:43;;;;;;;6.60;5.40;;;;;;;;;;5036271;28;20670;-73
2022/10/07 02:27:12;;;;;;;7.32;5.20;;;;;;;;;;5037056;28;20030;-70
2022/10/07 02:29:40;;;;;;;7.30;5.57;;;;;;;;;;5037459;28;20036;-71
2022/10/07 02:32:11;;;;;;;5.70;4.88;;;;;;;;;;5037640;28;20030;-66
2022/10/07 02:34:40;;;;;;;8.35;5.68;;;;;;;;;;5037597;28;20025;-67
2022/10/07 02:37:13;;;;;;;6.32;5.28;;;;;;;;;;5037459;28;20405;-70
2022/10/07 02:39:39;;;;;;;7.40;5.30;;;;;;;;;;5037567;28;20481;-65
2022/10/07 02:42:26;;;;;;;7.85;5.30;;;;;;;;;;5036372;28;20049;-71
2022/10/07 02:44:59;;;;;;;6.03;5.43;;;;;;;;;;5034350;28;20406;-67
2022/10/07 02:47:27;;;;;;;8.07;5.40;;;;;;;;;;5034280;28;20366;-71
2022/10/07 02:49:56;;;;;;;6.43;5.50;;;;;;;;;;5033886;28;20500;-70
2022/10/07 02:52:23;;;;;;;6.60;5.03;;;;;;;;;;5033264;28;20052;-69
2022/10/07 02:54:53;;;;;;;6.22;5.60;;;;;;;;;;5033082;28;20052;-65
2022/10/07 02:57:20;;;;;;;7.35;5.43;;;;;;;;;;5033189;28;20021;-63
2022/10/07 02:59:49;;;;;;;6.45;5.25;;;;;;;;;;5032956;28;20116;-69
2022/10/07 03:02:26;;;;;;;5.90;5.20;;;;;;;;;;5032958;28;20040;-67
2022/10/07 03:04:52;;;;;;;6.00;5.40;;;;;;;;;;5032991;28;20027;-70
2022/10/07 03:07:18;;;;;;;5.95;5.35;;;;;;;;;;5032332;28;20029;-67
2022/10/07 03:09:44;;;;;;;7.95;5.32;;;;;;;;;;5033285;28;20393;-70
2022/10/07 03:12:09;;;;;;;7.72;5.18;;;;;;;;;;5034034;28;20034;-64
2022/10/07 03:14:35;;;;;;;8.32;5.60;;;;;;;;;;5034214;28;20377;-73
2022/10/07 03:17:01;;;;;;;5.90;5.32;;;;;;;;;;5034243;28;20029;-65
2022/10/07 03:19:26;;;;;;;6.68;5.97;;;;;;;;;;5035056;28;20097;-72
2022/10/07 03:21:53;;;;;;;5.97;5.38;;;;;;;;;;5035083;28;20057;-72
2022/10/07 03:24:19;;;;;;;6.28;5.30;;;;;;;;;;5034906;28;20030;-68
2022/10/07 03:26:45;;;;;;;6.90;5.25;;;;;;;;;;5034271;28;20537;-68
2022/10/07 03:29:10;;;;;;;8.55;5.70;;;;;;;;;;5034247;28;20036;-64
2022/10/07 03:31:36;;;;;;;6.55;5.80;;;;;;;;;;5033766;28;20425;-69
2022/10/07 03:34:01;;;;;;;7.95;5.68;;;;;;;;;;5038271;28;20040;-72
2022/10/07 03:36:27;;;;;;;6.35;5.50;;;;;;;;;;5034162;28;20032;-64
2022/10/07 03:38:54;;;;;;;6.95;5.57;;;;;;;;;;5034318;28;20032;-64
2022/10/07 03:41:20;;;;;;;5.93;5.13;;;;;;;;;;5034947;28;20504;-71
2022/10/07 03:43:45;;;;;;;6.10;5.38;;;;;;;;;;5033590;28;20046;-67
2022/10/07 03:46:11;;;;;;;6.18;5.57;;;;;;;;;;5033487;28;20032;-72
2022/10/07 03:48:36;;;;;;;6.00;4.90;;;;;;;;;;5033256;28;20389;-71
2022/10/07 03:51:02;;;;;;;7.40;5.32;;;;;;;;;;5031947;28;20512;-68
2022/10/07 03:53:28;;;;;;;5.43;4.93;;;;;;;;;;5032862;28;20072;-65
2022/10/07 03:55:54;;;;;;;5.50;4.72;;;;;;;;;;5032318;28;20033;-68
2022/10/07 03:58:20;;;;;;;5.53;4.80;;;;;;;;;;5032972;28;20033;-70
2022/10/07 04:00:46;;;;;;;5.82;5.22;;;;;;;;;;5032764;28;20088;-68
2022/10/07 04:03:13;;;;;;;7.63;5.90;;;;;;;;;;5033735;28;20427;-67
2022/10/07 04:05:39;;;;;;;5.80;5.20;;;;;;;;;;5034351;28;20054;-71
2022/10/07 04:08:04;;;;;;;5.22;4.72;;;;;;;;;;5033402;28;20025;-69
2022/10/07 04:10:30;;;;;;;6.85;5.32;;;;;;;;;;5034700;28;20017;-66
2022/10/07 04:12:55;;;;;;;5.55;4.97;;;;;;;;;;5033112;28;20017;-71
2022/10/07 04:15:21;;;;;;;6.88;5.32;;;;;;;;;;5036227;28;20026;-72
2022/10/07 04:17:47;;;;;;;5.72;5.22;;;;;;;;;;5035501;28;20037;-70
2022/10/07 04:20:14;;;;;;;6.68;5.22;;;;;;;;;;5033116;28;20036;-72
2022/10/07 04:22:39;;;;;;;6.03;5.03;;;;;;;;;;5033114;28;20404;-65
2022/10/07 04:27:55;;;;;;;6.53;5.32;;;;;;;;;;5033320;28;20041;-66
2022/10/07 04:30:22;;;;;;;6.70;5.70;;;;;;;;;;5035035;28;20021;-68
2022/10/07 04:32:49;;;;;;;5.68;5.05;;;;;;;;;;5036660;28;20079;-73
2022/10/07 04:35:18;;;;;;;5.93;5.07;;;;;;;;;;5036205;28;20045;-71
2022/10/07 04:37:46;;;;;;;6.70;4.90;;;;;;;;;;5036302;28;20541;-65
2022/10/07 04:40:11;;;;;;;5.55;5.05;;;;;;;;;;5036047;28;20367;-66
2022/10/07 04:45:21;;;;;;;6.40;5.68;;;;;;;;;;5036132;28;20036;-68
2022/10/07 04:47:46;;;;;;;5.80;5.18;;;;;;;;;;5035664;28;20029;-73
2022/10/07 04:50:12;;;;;;;6.00;5.38;;;;;;;;;;5036179;28;20053;-65
2022/10/07 04:52:41;;;;;;;6.65;5.65;;;;;;;;;;5037000;28;20033;-65
2022/10/07 04:55:08;;;;;;;7.18;5.60;;;;;;;;;;5036121;28;20029;-63
2022/10/07 04:57:34;;;;;;;7.15;5.70;;;;;;;;;;5035255;28;20031;-69
2022/10/07 05:00:00;;;;;;;5.80;5.20;;;;;;;;;;5035951;28;20100;-64
2022/10/07 05:02:26;;;;;;;6.00;5.28;;;;;;;;;;5035658;28;20022;-63
2022/10/07 05:04:52;;;;;;;6.40;5.05;;;;;;;;;;5035584;28;20063;-67
2022/10/07 05:07:17;;;;;;;6.72;5.35;;;;;;;;;;5036260;28;20477;-68
2022/10/07 05:09:43;;;;;;;11.75;5.63;;;;;;;;;;5036821;28;20104;-66
2022/10/07 05:12:09;;;;;;;6.45;5.43;;;;;;;;;;5037277;28;20037;-68
2022/10/07 05:14:34;;;;;;;5.85;5.10;;;;;;;;;;5036516;28;20363;-69
2022/10/07 05:16:59;;;;;;;5.82;5.22;;;;;;;;;;5037547;28;20033;-66
2022/10/07 05:19:25;;;;;;;5.68;5.07;;;;;;;;;;5035636;28;20071;-69
2022/10/07 05:21:50;;;;;;;6.45;5.18;;;;;;;;;;5035900;28;20021;-66
2022/10/07 05:24:16;;;;;;;6.50;5.50;;;;;;;;;;5035410;28;20037;-68
2022/10/07 05:26:41;;;;;;;7.68;5.30;;;;;;;;;;5036192;28;20477;-67
2022/10/07 05:29:07;;;;;;;6.28;5.68;;;;;;;;;;5036285;28;20071;-67
2022/10/07 05:31:33;;;;;;;5.25;4.75;;;;;;;;;;5036283;28;20484;-66
2022/10/07 05:33:59;;;;;;;6.80;5.72;;;;;;;;;;5035726;28;20424;-67
2022/10/07 05:36:24;;;;;;;6.22;5.45;;;;;;;;;;5033258;28;20505;-70
2022/10/07 05:38:53;;;;;;;6.43;5.43;;;;;;;;;;5033931;28;20025;-73
2022/10/07 05:41:20;;;;;;;5.82;5.22;;;;;;;;;;5034585;28;20465;-66
2022/10/07 05:43:47;;;;;;;6.13;5.50;;;;;;;;;;5034651;28;20440;-71
2022/10/07 05:46:14;;;;;;;5.97;5.38;;;;;;;;;;5036645;28;20093;-72
2022/10/07 05:48:44;;;;;;;6.90;5.63;;;;;;;;;;5035754;28;20071;-67
2022/10/07 05:51:10;;;;;;;6.57;5.30;;;;;;;;;;5037823;28;20022;-66
2022/10/07 05:53:39;;;;;;;6.13;5.25;;;;;;;;;;5036552;28;20033;-65
2022/10/07 05:56:09;;;;;;;5.45;4.93;;;;;;;;;;5036521;28;20060;-66
2022/10/07 05:58:35;;;;;;;5.90;5.30;;;;;;;;;;5036472;28;20052;-70
2022/10/07 06:01:02;;;;;;;7.85;5.10;;;;;;;;;;5037745;28;20022;-67
2022/10/07 06:03:27;;;;;;;5.95;5.35;;;;;;;;;;5037282;28;20036;-67
2022/10/07 06:05:54;;;;;;;6.90;5.78;;;;;;;;;;5036894;28;20029;-70
2022/10/07 06:08:22;;;;;;;9.27;5.45;;;;;;;;;;5036849;28;20025;-71
2022/10/07 06:13:32;;;;;;;5.82;5.22;;;;;;;;;;5035113;28;20068;-67
2022/10/07 06:16:03;;;;;;;7.63;5.72;;;;;;;;;;5035478;28;20033;-66
2022/10/07 06:18:29;;;;;;;5.80;5.18;;;;;;;;;;5034380;28;20433;-68
2022/10/07 06:20:59;;;;;;;9.02;5.63;;;;;;;;;;5035452;28;20026;-67
2022/10/07 06:23:26;;;;;;;5.57;4.85;;;;;;;;;;5036342;28;20029;-67
2022/10/07 06:25:56;;;;;;;5.32;4.80;;;;;;;;;;5034729;28;20030;-65
2022/10/07 06:28:22;;;;;;;6.07;5.47;;;;;;;;;;5036037;28;20470;-72
2022/10/07 06:30:48;;;;;;;5.53;5.03;;;;;;;;;;5038167;28;20041;-66
2022/10/07 06:33:15;;;;;;;6.28;5.68;;;;;;;;;;5037712;28;20083;-68
2022/10/07 06:35:40;;;;;;;5.82;5.20;;;;;;;;;;5034424;28;20121;-68
2022/10/07 06:38:06;;;;;;;6.20;5.32;;;;;;;;;;5032093;28;20089;-66
2022/10/07 06:40:32;;;;;;;6.95;5.28;;;;;;;;;;5049263;28;20018;-75
2022/10/07 06:42:57;;;;;;;8.05;5.43;;;;;;;;;;5038980;28;20063;-72
2022/10/07 06:45:23;;;;;;;6.07;5.47;;;;;;;;;;5036417;28;20052;-72
2022/10/07 06:47:48;;;;;;;6.60;5.65;;;;;;;;;;5038736;28;20327;-73
2022/10/07 06:50:14;;;;;;;5.85;5.20;;;;;;;;;;5036539;28;20477;-71
2022/10/07 06:52:40;;;;;;;5.57;5.05;;;;;;;;;;5030418;28;20028;-74
2022/10/07 06:55:06;;;;;;;6.03;5.43;;;;;;;;;;5063829;28;20030;-74
2022/10/07 06:57:32;;;;;;;6.03;5.40;;;;;;;;;;5030359;28;20033;-69
2022/10/07 06:59:59;;;;;;;7.57;5.55;;;;;;;;;;5032152;28;20021;-74
2022/10/07 07:02:28;;;;;;;5.70;4.90;;;;;;;;;;5032648;28;20358;-67
2022/10/07 07:04:54;;;;;;;7.18;5.00;;;;;;;;;;5031299;28;20555;-68
2022/10/07 07:07:22;;;;;;;5.38;4.85;;;;;;;;;;5031811;28;20022;-68
2022/10/07 07:09:48;;;;;;;6.72;5.10;;;;;;;;;;5055060;28;20025;-73
2022/10/07 07:12:14;;;;;;;6.05;4.93;;;;;;;;;;5031926;28;20030;-71
2022/10/07 07:14:40;;;;;;;6.70;4.85;;;;;;;;;;5034660;28;20099;-74
2022/10/07 07:17:06;;;;;;;5.63;5.13;;;;;;;;;;5032649;28;20026;-75
2022/10/07 07:19:31;;;;;;;6.45;5.43;;;;;;;;;;5034116;28;20035;-68
2022/10/07 07:21:57;;;;;;;6.15;5.50;;;;;;;;;;5031509;28;20034;-67
2022/10/07 07:24:22;;;;;;;7.85;5.30;;;;;;;;;;5031186;28;20029;-70
2022/10/07 07:26:48;;;;;;;9.25;5.13;;;;;;;;;;5032444;28;20017;-67
2022/10/07 07:29:15;;;;;;;7.63;5.13;;;;;;;;;;5030828;28;20085;-68
2022/10/07 07:31:41;;;;;;;5.70;5.07;;;;;;;;;;5031174;28;20025;-67
2022/10/07 07:34:12;;;;;;;8.30;5.72;;;;;;;;;;5028874;28;20025;-66
2022/10/07 07:36:43;;;;;;;5.72;5.18;;;;;;;;;;5025262;28;20037;-66
2022/10/07 07:39:11;;;;;;;6.20;5.30;;;;;;;;;;5027932;28;20021;-66
2022/10/07 07:41:45;;;;;;;5.97;5.38;;;;;;;;;;5029354;28;20025;-69
2022/10/07 07:44:12;;;;;;;6.03;5.43;;;;;;;;;;5027716;28;20080;-69
2022/10/07 07:46:42;;;;;;;6.55;5.32;;;;;;;;;;5028238;28;20427;-72
2022/10/07 07:49:09;;;;;;;6.13;5.53;;;;;;;;;;5030399;28;20056;-71
2022/10/07 07:51:35;;;;;;;6.55;5.82;;;;;;;;;;5035543;28;20646;-69
2022/10/07 07:54:01;;;;;;;7.05;5.43;;;;;;;;;;5031048;28;20497;-67
2022/10/07 07:56:31;;;;;;;5.80;5.25;;;;;;;;;;5030909;28;20068;-66
2022/10/07 07:58:57;;;;;;;5.70;5.20;;;;;;;;;;5033394;28;20030;-73
2022/10/07 08:01:23;;;;;;;5.50;5.00;;;;;;;;;;5031798;28;20097;-76
2022/10/07 08:03:49;;;;;;;5.90;5.30;;;;;;;;;;5029513;28;20037;-67
2022/10/07 08:06:18;;;;;;;6.03;5.18;;;;;;;;;;5029481;28;20061;-69
2022/10/07 08:08:44;;;;;;;6.28;5.25;;;;;;;;;;5037609;28;20738;-67
2022/10/07 08:11:17;;;;;;;5.80;5.15;;;;;;;;;;5034905;28;20029;-67
2022/10/07 08:13:43;;;;;;;5.50;5.00;;;;;;;;;;5031643;28;20380;-71
2022/10/07 08:16:12;;;;;;;6.38;5.10;;;;;;;;;;5036816;28;20033;-71
2022/10/07 08:18:45;;;;;;;6.07;4.95;;;;;;;;;;5037732;28;20038;-67
2022/10/07 08:21:11;;;;;;;6.13;5.03;;;;;;;;;;5035632;28;20026;-66
2022/10/07 08:23:37;;;;;;;5.93;5.30;;;;;;;;;;5031290;28;20041;-66
2022/10/07 08:26:03;;;;;;;8.10;6.22;;;;;;;;;;5035501;28;20474;-69
2022/10/07 08:28:30;;;;;;;8.98;5.80;;;;;;;;;;5029596;28;20045;-65
2022/10/07 08:31:02;;;;;;;7.15;5.60;;;;;;;;;;5035716;28;20052;-68
2022/10/07 08:33:32;;;;;;;7.75;6.07;;;;;;;;;;5033392;28;20029;-65
2022/10/07 08:35:59;;;;;;;8.18;6.32;;;;;;;;;;5035570;28;20036;-68
2022/10/07 08:38:29;;;;;;;7.05;6.07;;;;;;;;;;5035175;28;20497;-66
2022/10/07 08:40:54;;;;;;;6.82;5.97;;;;;;;;;;5033698;28;20489;-65
2022/10/07 08:43:22;;;;;;;8.30;5.93;;;;;;;;;;5029467;28;20058;-65
2022/10/07 08:45:51;;;;;;;8.75;5.88;;;;;;;;;;5033673;28;20026;-67
2022/10/07 08:48:28;;;;;;;12.65;6.13;;;;;;;;;;5033992;28;20105;-68
2022/10/07 08:51:36;;;;;;;7.90;5.72;;;;;;;;;;5033909;28;20436;-68
2022/10/07 08:54:01;;;;;;;6.40;5.80;;;;;;;;;;5033768;28;20467;-65
2022/10/07 08:56:28;;;;;;;8.27;5.97;;;;;;;;;;5033385;28;20040;-67
2022/10/07 08:58:56;;;;;;;7.40;6.00;;;;;;;;;;5019604;28;20088;-67
2022/10/07 09:01:57;;;;;;;9.05;5.97;;;;;;;;;;5015516;28;20026;-68
2022/10/07 09:04:37;;;;;;;8.30;5.93;;;;;;;;;;5013891;28;20506;-70
2022/10/07 09:07:34;;;;;;;7.75;5.85;;;;;;;;;;5014738;28;20064;-66
2022/10/07 09:10:22;;;;;;;9.70;5.90;;;;;;;;;;5011700;28;20030;-70
2022/10/07 09:12:57;;;;;;;6.38;5.68;;;;;;;;;;5015228;28;20053;-69
2022/10/07 09:15:48;;;;;;;6.10;5.50;;;;;;;;;;5014873;28;20022;-69
2022/10/07 09:18:25;;;;;;;8.77;5.97;;;;;;;;;;5013491;28;20034;-69
2022/10/07 09:20:55;;;;;;;8.20;5.53;;;;;;;;;;5015010;28;20026;-69
2022/10/07 09:23:24;;;;;;;9.60;5.45;;;;;;;;;;5015085;28;20029;-65
2022/10/07 09:25:53;;;;;;;10.02;6.25;;;;;;;;;;5014802;28;20482;-70
2022/10/07 09:28:27;;;;;;;9.77;5.85;;;;;;;;;;5015211;28;20133;-66
2022/10/07 09:30:53;;;;;;;7.72;5.82;;;;;;;;;;5015139;28;20489;-69
2022/10/07 09:33:20;;;;;;;7.25;5.32;;;;;;;;;;5014512;28;20018;-65
2022/10/07 09:35:55;;;;;;;7.38;5.70;;;;;;;;;;5013468;28;20099;-68
2022/10/07 09:38:36;;;;;;;8.50;5.68;;;;;;;;;;5014496;28;20026;-68
2022/10/07 09:41:30;;;;;;;7.15;5.32;;;;;;;;;;5014408;28;20479;-69
2022/10/07 09:44:01;;;;;;;9.02;5.10;;;;;;;;;;5014138;28;20043;-70
2022/10/07 09:46:46;;;;;;;6.68;4.93;;;;;;;;;;5025560;28;20386;-69
2022/10/07 09:49:27;;;;;;;9.10;5.65;;;;;;;;;;5032397;28;20063;-66
2022/10/07 09:52:30;;;;;;;5.43;4.88;;;;;;;;;;5026950;28;20566;-65
2022/10/07 09:55:38;;;;;;;6.63;5.20;;;;;;;;;;5034136;28;20473;-68
2022/10/07 09:58:15;;;;;;;7.38;4.80;;;;;;;;;;5034443;28;20052;-65
2022/10/07 10:00:42;;;;;;;5.85;5.03;;;;;;;;;;5029199;28;20030;-68
2022/10/07 10:03:08;;;;;;;6.40;4.93;;;;;;;;;;5013924;28;20068;-69
2022/10/07 10:05:37;;;;;;;6.63;4.63;;;;;;;;;;5014207;28;20114;-66
2022/10/07 10:08:20;;;;;;;9.85;5.00;;;;;;;;;;5014126;28;20029;-65
2022/10/07 10:10:51;;;;;;;5.85;4.80;;;;;;;;;;5013908;28;20485;-70
2022/10/07 10:13:33;;;;;;;7.53;4.97;;;;;;;;;;5013746;28;20072;-69
2022/10/07 10:16:00;;;;;;;6.65;5.55;;;;;;;;;;5013800;28;20052;-68
2022/10/07 10:18:31;;;;;;;5.28;4.78;;;;;;;;;;5013707;28;20070;-70
2022/10/07 10:21:29;;;;;;;5.80;5.07;;;;;;;;;;5013757;28;20367;-67
2022/10/07 10:23:59;;;;;;;8.20;4.88;;;;;;;;;;5042983;28;20386;-66
2022/10/07 10:26:43;;;;;;;6.53;4.80;;;;;;;;;;5013870;28;20099;-69
2022/10/07 10:29:24;;;;;;;8.02;5.53;;;;;;;;;;5012905;28;20026;-70
2022/10/07 10:32:14;;;;;;;8.68;5.05;;;;;;;;;;5013490;28;20054;-70
2022/10/07 10:35:29;;;;;;;7.63;5.50;;;;;;;;;;5019738;28;20029;-65
2022/10/07 10:38:11;;;;;;;6.40;4.20;;;;;;;;;;5032868;28;20195;-67
2022/10/07 10:40:40;;;;;;;7.50;5.18;;;;;;;;;;5063457;28;20021;-69
2022/10/07 10:43:11;;;;;;;6.80;4.70;;;;;;;;;;5034253;28;20164;-70
2022/10/07 10:45:59;;;;;;;5.40;4.68;;;;;;;;;;5032854;28;20552;-69
2022/10/07 10:48:47;;;;;;;7.10;4.63;;;;;;;;;;5033221;28;20034;-70
2022/10/07 10:51:41;;;;;;;8.30;4.90;;;;;;;;;;5030518;28;20041;-68
2022/10/07 10:54:38;;;;;;;5.03;4.20;;;;;;;;;;5012131;28;20030;-70
2022/10/07 10:57:36;;;;;;;5.85;4.80;;;;;;;;;;5013305;28;20405;-69
2022/10/07 11:00:11;;;;;;;5.80;4.80;;;;;;;;;;5012995;28;20041;-67
2022/10/07 11:02:42;;;;;;;9.55;4.53;;;;;;;;;;5011487;28;20393;-69
2022/10/07 11:05:20;;;;;;;10.05;4.63;;;;;;;;;;5011571;28;20026;-69
2022/10/07 11:07:52;;;;;;;8.55;4.65;;;;;;;;;;5011327;28;20029;-70
2022/10/07 11:10:25;;;;;;;5.68;4.47;;;;;;;;;;5011882;28;20030;-70
2022/10/07 11:13:06;;;;;;;4.78;4.35;;;;;;;;;;5010674;28;20029;-66
2022/10/07 11:15:38;;;;;;;5.97;4.90;;;;;;;;;;5012023;28;20373;-67
2022/10/07 11:18:07;;;;;;;5.30;4.55;;;;;;;;;;5011765;28;20073;-67
2022/10/07 11:20:36;;;;;;;4.90;4.28;;;;;;;;;;5011590;28;20033;-69
2022/10/07 11:23:14;;;;;;;7.07;4.50;;;;;;;;;;5012550;28;20022;-67
2022/10/07 11:25:47;;;;;;;9.73;5.05;;;;;;;;;;5013436;28;20038;-70
2022/10/07 11:28:20;;;;;;;8.05;4.93;;;;;;;;;;5021939;28;20520;-71
2022/10/07 11:31:14;;;;;;;4.57;4.13;;;;;;;;;;5023581;28;20025;-70
2022/10/07 11:33:47;;;;;;;6.00;4.28;;;;;;;;;;5012499;28;20026;-70
2022/10/07 11:36:17;;;;;;;6.30;4.53;;;;;;;;;;5022288;28;20046;-70
2022/10/07 11:38:45;;;;;;;8.05;4.32;;;;;;;;;;5019922;28;20564;-70
2022/10/07 11:41:19;;;;;;;5.55;4.68;;;;;;;;;;5016496;28;20049;-70
2022/10/07 11:43:48;;;;;;;6.50;4.47;;;;;;;;;;5027230;28;20052;-70
2022/10/07 11:46:40;;;;;;;4.97;4.13;;;;;;;;;;5036276;28;20025;-70
2022/10/07 11:49:11;;;;;;;4.93;4.43;;;;;;;;;;5036114;28;20120;-70
2022/10/07 11:51:59;;;;;;;4.93;4.25;;;;;;;;;;5036244;28;20025;-69
2022/10/07 11:54:28;;;;;;;4.97;4.10;;;;;;;;;;5034657;28;20432;-70
2022/10/07 11:56:59;;;;;;;6.68;4.07;;;;;;;;;;5026302;28;20030;-70
2022/10/07 11:59:45;;;;;;;5.00;4.40;;;;;;;;;;5017377;28;20026;-70
2022/10/07 12:02:44;;;;;;;5.30;4.28;;;;;;;;;;5028828;28;20117;-70
2022/10/07 12:05:32;;;;;;;5.30;4.45;;;;;;;;;;5004170;28;20029;-70
2022/10/07 12:08:20;;;;;;;4.50;4.00;;;;;;;;;;5012320;28;20133;-70
2022/10/07 12:10:45;;;;;;;7.80;4.32;;;;;;;;;;5011083;28;20033;-70
2022/10/07 12:13:11;;;;;;;5.65;4.03;;;;;;;;;;5016220;28;20033;-70
2022/10/07 12:15:43;;;;;;;5.10;4.10;;;;;;;;;;5016860;28;20537;-70
2022/10/07 12:18:16;;;;;;;5.35;3.95;;;;;;;;;;5016224;28;20468;-70
2022/10/07 12:20:48;;;;;;;4.30;3.90;;;;;;;;;;5016173;28;20030;-70
2022/10/07 12:23:27;;;;;;;5.03;3.55;;;;;;;;;;5014545;28;20025;-70
2022/10/07 12:25:58;;;;;;;4.68;4.00;;;;;;;;;;5015415;28;20040;-70
2022/10/07 12:28:40;;;;;;;7.20;4.30;;;;;;;;;;5019209;28;20048;-70
2022/10/07 12:31:15;;;;;;;6.13;4.07;;;;;;;;;;5034083;28;20060;-69
2022/10/07 12:33:56;;;;;;;4.95;3.90;;;;;;;;;;5034201;28;20389;-70
2022/10/07 12:36:21;;;;;;;5.20;3.80;;;;;;;;;;5036509;28;20037;-70
2022/10/07 12:38:56;;;;;;;5.45;3.92;;;;;;;;;;5033951;28;20030;-70
2022/10/07 12:41:25;;;;;;;8.05;3.90;;;;;;;;;;5035610;28;20029;-70
2022/10/07 12:44:26;;;;;;;4.07;3.67;;;;;;;;;;5066947;28;20649;-70
2022/10/07 12:46:56;;;;;;;5.75;4.00;;;;;;;;;;5030995;28;20042;-70
2022/10/07 12:49:44;;;;;;;4.82;3.70;;;;;;;;;;5014219;28;20026;-70
2022/10/07 12:52:23;;;;;;;4.93;3.80;;;;;;;;;;5015152;28;20351;-70
2022/10/07 12:55:08;;;;;;;5.40;3.97;;;;;;;;;;5017714;28;20060;-70
2022/10/07 12:57:36;;;;;;;5.65;3.90;;;;;;;;;;5035328;28;20389;-70
2022/10/07 13:00:01;;;;;;;6.97;4.05;;;;;;;;;;5035309;28;20018;-70
2022/10/07 13:02:45;;;;;;;4.15;3.60;;;;;;;;;;5030117;28;20371;-70
2022/10/07 13:05:29;;;;;;;6.45;4.03;;;;;;;;;;5026165;28;20477;-70
2022/10/07 13:08:25;;;;;;;4.82;4.20;;;;;;;;;;5023046;28;20047;-69
2022/10/07 13:11:14;;;;;;;5.80;4.20;;;;;;;;;;5020554;28;20034;-70
2022/10/07 13:13:39;;;;;;;5.40;3.75;;;;;;;;;;5017772;28;20037;-70
2022/10/07 13:16:15;;;;;;;5.53;3.67;;;;;;;;;;5016129;28;20109;-70
2022/10/07 13:18:59;;;;;;;5.18;3.90;;;;;;;;;;5033349;28;20033;-70
2022/10/07 13:21:34;;;;;;;4.57;4.13;;;;;;;;;;5034573;28;20039;-70
2022/10/07 13:24:00;;;;;;;8.10;4.05;;;;;;;;;;5015141;28;20438;-70
2022/10/07 13:26:26;;;;;;;6.15;3.90;;;;;;;;;;5014918;28;20068;-69
2022/10/07 13:28:55;;;;;;;4.97;3.72;;;;;;;;;;5029702;28;20025;-70
2022/10/07 13:31:29;;;;;;;5.30;4.50;;;;;;;;;;5034987;28;20029;-69
2022/10/07 13:33:59;;;;;;;5.20;3.97;;;;;;;;;;5034814;28;20057;-69
2022/10/07 13:36:30;;;;;;;4.75;3.70;;;;;;;;;;5034876;28;20041;-69
2022/10/07 13:39:14;;;;;;;9.98;4.20;;;;;;;;;;5034615;28;20025;-69
2022/10/07 13:41:45;;;;;;;4.05;3.65;;;;;;;;;;5034190;28;20436;-69
2022/10/07 13:44:14;;;;;;;4.88;4.20;;;;;;;;;;5033970;28;20489;-70
2022/10/07 13:47:05;;;;;;;4.40;4.00;;;;;;;;;;5024227;28;20037;-69
2022/10/07 13:49:38;;;;;;;5.65;4.10;;;;;;;;;;5015515;28;20044;-70
2022/10/07 13:52:06;;;;;;;5.90;3.80;;;;;;;;;;5015656;28;20025;-69
2022/10/07 13:54:33;;;;;;;3.95;3.60;;;;;;;;;;5029410;28;20428;-70
2022/10/07 13:57:01;;;;;;;4.75;3.88;;;;;;;;;;5033302;28;20041;-70
2022/10/07 13:59:27;;;;;;;5.53;3.97;;;;;;;;;;5033648;28;20032;-70
2022/10/07 14:01:56;;;;;;;5.22;3.80;;;;;;;;;;5031314;28;20052;-70
2022/10/07 14:04:25;;;;;;;4.93;3.95;;;;;;;;;;5028133;28;20025;-70
2022/10/07 14:07:06;;;;;;;6.78;3.90;;;;;;;;;;5029031;28;20087;-70
2022/10/07 14:09:55;;;;;;;4.22;3.83;;;;;;;;;;5028001;28;20021;-70
2022/10/07 14:12:37;;;;;;;5.82;4.05;;;;;;;;;;5025212;28;20057;-70
2022/10/07 14:15:18;;;;;;;4.40;3.83;;;;;;;;;;5054835;28;20385;-69
2022/10/07 14:17:54;;;;;;;6.55;4.30;;;;;;;;;;5023784;28;20025;-70
2022/10/07 14:20:25;;;;;;;8.95;4.30;;;;;;;;;;5024746;28;20508;-69
2022/10/07 14:22:57;;;;;;;7.65;4.53;;;;;;;;;;5030539;28;20026;-69
2022/10/07 14:25:47;;;;;;;5.15;4.32;;;;;;;;;;5013472;28;20022;-70
2022/10/07 14:28:23;;;;;;;5.85;4.20;;;;;;;;;;5013525;28;20033;-69
2022/10/07 14:37:04;;;;;;;5.28;4.60;;;;;;;;;;5027436;28;20052;-70
2022/10/07 14:39:46;;;;;;;5.20;4.32;;;;;;;;;;5019614;28;20667;-69
2022/10/07 14:42:24;;;;;;;9.55;4.30;;;;;;;;;;5016252;28;20076;-70
2022/10/07 14:44:51;;;;;;;9.32;4.60;;;;;;;;;;5018814;28;20444;-70
2022/10/07 14:47:19;;;;;;;5.03;4.53;;;;;;;;;;5017155;28;20030;-70
2022/10/07 14:49:46;;;;;;;5.03;4.53;;;;;;;;;;5016942;28;20878;-70
2022/10/07 14:52:28;;;;;;;6.65;4.32;;;;;;;;;;5028830;28;20108;-70
2022/10/07 14:54:56;;;;;;;5.88;4.18;;;;;;;;;;5032910;28;20044;-70
2022/10/07 14:57:22;;;;;;;9.75;4.57;;;;;;;;;;5032734;28;20508;-70
2022/10/07 14:59:49;;;;;;;4.65;4.05;;;;;;;;;;5032453;28;20021;-70
2022/10/07 15:02:14;;;;;;;7.18;4.20;;;;;;;;;;5064085;28;20040;-69
2022/10/07 15:04:41;;;;;;;4.97;3.47;;;;;;;;;;5031668;28;20474;-70
2022/10/07 15:07:08;;;;;;;9.73;3.80;;;;;;;;;;5032451;28;20025;-70
2022/10/07 15:09:34;;;;;;;5.80;4.10;;;;;;;;;;5031204;28;20036;-70
2022/10/07 15:12:00;;;;;;;6.22;3.85;;;;;;;;;;5032626;28;20026;-70
2022/10/07 15:14:25;;;;;;;7.43;4.32;;;;;;;;;;5032211;28;20021;-69
2022/10/07 15:16:50;;;;;;;14.80;4.80;;;;;;;;;;5032454;28;20425;-69
2022/10/07 15:19:16;;;;;;;4.60;4.20;;;;;;;;;;5032773;28;20109;-69
2022/10/07 15:21:41;;;;;;;4.63;4.18;;;;;;;;;;5023863;28;20034;-69
2022/10/07 15:24:07;;;;;;;6.63;4.03;;;;;;;;;;5027943;28;20033;-69
2022/10/07 15:26:32;;;;;;;6.03;4.00;;;;;;;;;;5027752;28;20394;-69